sensor_id;sensor_type;location;lat;lon;timestamp;temperature;humidity
16140;DHT22;8175;49.326;12.690;2023-12-22T00:01:12;2.70;99.90
16140;DHT22;8175;49.326;12.690;2023-12-22T00:03:43;2.70;99.90
16140;DHT22;8175;49.326;12.690;2023-12-22T00:06:11;2.60;99.90
16140;DHT22;8175;49.326;12.690;2023-12-22T00:08:37;2.60;99.90
16140;DHT22;8175;49.326;12.690;2023-12-22T00:11:03;2.70;99.90
16140;DHT22;8175;49.326;12.690;2023-12-22T00:13:29;2.70;99.90
16140;DHT22;8175;49.326;12.690;2023-12-22T00:15:55;2.60;99.90
16140;DHT22;8175;49.326;12.690;2023-12-22T00:18:20;2.60;99.90
16140;DHT22;8175;49.326;12.690;2023-12-22T00:20:46;2.60;99.90
16140;DHT22;8175;49.326;12.690;2023-12-22T00:23:12;2.60;99.90
16140;DHT22;8175;49.326;12.690;2023-12-22T00:25:37;2.70;99.90
16140;DHT22;8175;49.326;12.690;2023-12-22T00:28:03;2.60;99.90
16140;DHT22;8175;49.326;12.690;2023-12-22T00:30:29;2.60;99.90
16140;DHT22;8175;49.326;12.690;2023-12-22T00:32:54;2.70;99.90
16140;DHT22;8175;49.326;12.690;2023-12-22T00:35:20;2.70;99.90
16140;DHT22;8175;49.326;12.690;2023-12-22T00:37:46;2.70;99.90
16140;DHT22;8175;49.326;12.690;2023-12-22T00:40:11;2.60;99.90
16140;DHT22;8175;49.326;12.690;2023-12-22T00:42:37;2.70;99.90
16140;DHT22;8175;49.326;12.690;2023-12-22T00:45:03;2.70;99.90
16140;DHT22;8175;49.326;12.690;2023-12-22T00:47:29;2.70;99.90
16140;DHT22;8175;49.326;12.690;2023-12-22T00:49:55;2.80;99.90
16140;DHT22;8175;49.326;12.690;2023-12-22T00:52:20;2.70;99.90
16140;DHT22;8175;49.326;12.690;2023-12-22T00:54:46;2.70;99.90
16140;DHT22;8175;49.326;12.690;2023-12-22T00:57:12;2.70;99.90
16140;DHT22;8175;49.326;12.690;2023-12-22T00:59:38;2.70;99.90
16140;DHT22;8175;49.326;12.690;2023-12-22T01:02:07;2.80;99.90
16140;DHT22;8175;49.326;12.690;2023-12-22T01:04:33;2.70;99.90
16140;DHT22;8175;49.326;12.690;2023-12-22T01:06:59;2.70;99.90
16140;DHT22;8175;49.326;12.690;2023-12-22T01:09:24;2.70;99.90
16140;DHT22;8175;49.326;12.690;2023-12-22T01:11:50;2.70;99.90
16140;DHT22;8175;49.326;12.690;2023-12-22T01:14:15;2.70;99.90
16140;DHT22;8175;49.326;12.690;2023-12-22T01:16:41;2.70;99.90
16140;DHT22;8175;49.326;12.690;2023-12-22T01:19:07;2.80;99.90
16140;DHT22;8175;49.326;12.690;2023-12-22T01:21:32;2.80;99.90
16140;DHT22;8175;49.326;12.690;2023-12-22T01:23:58;2.70;99.90
16140;DHT22;8175;49.326;12.690;2023-12-22T01:26:24;2.70;99.90
16140;DHT22;8175;49.326;12.690;2023-12-22T01:28:50;2.70;99.90
16140;DHT22;8175;49.326;12.690;2023-12-22T01:31:16;2.60;99.90
16140;DHT22;8175;49.326;12.690;2023-12-22T01:33:41;2.50;99.90
16140;DHT22;8175;49.326;12.690;2023-12-22T01:36:07;2.40;99.90
16140;DHT22;8175;49.326;12.690;2023-12-22T01:38:33;2.40;99.90
16140;DHT22;8175;49.326;12.690;2023-12-22T01:40:59;2.40;99.90
16140;DHT22;8175;49.326;12.690;2023-12-22T01:43:24;2.40;99.90
16140;DHT22;8175;49.326;12.690;2023-12-22T01:45:54;2.50;99.90
16140;DHT22;8175;49.326;12.690;2023-12-22T01:48:21;2.50;99.90
16140;DHT22;8175;49.326;12.690;2023-12-22T01:50:52;2.60;99.90
16140;DHT22;8175;49.326;12.690;2023-12-22T01:53:19;2.60;99.90
16140;DHT22;8175;49.326;12.690;2023-12-22T01:55:49;2.70;99.90
16140;DHT22;8175;49.326;12.690;2023-12-22T01:58:16;2.60;99.90
16140;DHT22;8175;49.326;12.690;2023-12-22T02:00:42;2.60;99.90
16140;DHT22;8175;49.326;12.690;2023-12-22T02:03:08;2.60;99.90
16140;DHT22;8175;49.326;12.690;2023-12-22T02:05:34;2.60;99.90
16140;DHT22;8175;49.326;12.690;2023-12-22T02:08:00;2.60;99.90
16140;DHT22;8175;49.326;12.690;2023-12-22T02:10:25;2.60;99.90
16140;DHT22;8175;49.326;12.690;2023-12-22T02:12:51;2.60;99.90
16140;DHT22;8175;49.326;12.690;2023-12-22T02:15:17;2.60;99.90
16140;DHT22;8175;49.326;12.690;2023-12-22T02:20:16;2.60;99.90
16140;DHT22;8175;49.326;12.690;2023-12-22T02:22:41;2.50;99.90
16140;DHT22;8175;49.326;12.690;2023-12-22T02:25:07;2.50;99.90
16140;DHT22;8175;49.326;12.690;2023-12-22T02:27:48;2.50;99.90
16140;DHT22;8175;49.326;12.690;2023-12-22T02:30:34;2.50;99.90
16140;DHT22;8175;49.326;12.690;2023-12-22T02:33:05;2.50;99.90
16140;DHT22;8175;49.326;12.690;2023-12-22T02:35:33;2.50;99.90
16140;DHT22;8175;49.326;12.690;2023-12-22T02:38:02;2.60;99.90
16140;DHT22;8175;49.326;12.690;2023-12-22T02:40:28;2.60;99.90
16140;DHT22;8175;49.326;12.690;2023-12-22T02:42:55;2.50;99.90
16140;DHT22;8175;49.326;12.690;2023-12-22T02:45:21;2.50;99.90
16140;DHT22;8175;49.326;12.690;2023-12-22T02:47:47;2.50;99.90
16140;DHT22;8175;49.326;12.690;2023-12-22T02:50:16;2.50;99.90
16140;DHT22;8175;49.326;12.690;2023-12-22T02:52:42;2.50;99.90
16140;DHT22;8175;49.326;12.690;2023-12-22T02:55:09;2.50;99.90
16140;DHT22;8175;49.326;12.690;2023-12-22T02:57:34;2.50;99.90
16140;DHT22;8175;49.326;12.690;2023-12-22T03:00:00;2.50;99.90
16140;DHT22;8175;49.326;12.690;2023-12-22T03:02:26;2.60;99.90
16140;DHT22;8175;49.326;12.690;2023-12-22T03:04:51;2.60;99.90
16140;DHT22;8175;49.326;12.690;2023-12-22T03:07:17;2.60;99.90
16140;DHT22;8175;49.326;12.690;2023-12-22T03:09:43;2.60;99.90
16140;DHT22;8175;49.326;12.690;2023-12-22T03:12:09;2.60;99.90
16140;DHT22;8175;49.326;12.690;2023-12-22T03:14:36;2.60;99.90
16140;DHT22;8175;49.326;12.690;2023-12-22T03:17:03;2.60;99.90
16140;DHT22;8175;49.326;12.690;2023-12-22T03:19:30;2.50;99.90
16140;DHT22;8175;49.326;12.690;2023-12-22T03:21:55;2.50;99.90
16140;DHT22;8175;49.326;12.690;2023-12-22T03:24:22;2.50;99.90
16140;DHT22;8175;49.326;12.690;2023-12-22T03:26:49;2.50;99.90
16140;DHT22;8175;49.326;12.690;2023-12-22T03:29:15;2.50;99.90
16140;DHT22;8175;49.326;12.690;2023-12-22T03:31:41;2.50;99.90
16140;DHT22;8175;49.326;12.690;2023-12-22T03:34:07;2.50;99.90
16140;DHT22;8175;49.326;12.690;2023-12-22T03:36:33;2.50;99.90
16140;DHT22;8175;49.326;12.690;2023-12-22T03:38:58;2.40;99.90
16140;DHT22;8175;49.326;12.690;2023-12-22T03:41:24;2.40;99.90
16140;DHT22;8175;49.326;12.690;2023-12-22T03:43:49;2.40;99.90
16140;DHT22;8175;49.326;12.690;2023-12-22T03:46:15;2.40;99.90
16140;DHT22;8175;49.326;12.690;2023-12-22T03:48:41;2.40;99.90
16140;DHT22;8175;49.326;12.690;2023-12-22T03:51:07;2.30;99.90
16140;DHT22;8175;49.326;12.690;2023-12-22T03:53:32;2.30;99.90
16140;DHT22;8175;49.326;12.690;2023-12-22T03:55:58;2.40;99.90
16140;DHT22;8175;49.326;12.690;2023-12-22T03:58:24;2.40;99.90
16140;DHT22;8175;49.326;12.690;2023-12-22T04:00:51;2.40;99.90
16140;DHT22;8175;49.326;12.690;2023-12-22T04:03:17;2.40;99.90
16140;DHT22;8175;49.326;12.690;2023-12-22T04:05:42;2.50;99.90
16140;DHT22;8175;49.326;12.690;2023-12-22T04:08:08;2.50;99.90
16140;DHT22;8175;49.326;12.690;2023-12-22T04:10:34;2.50;99.90
16140;DHT22;8175;49.326;12.690;2023-12-22T04:12:59;2.60;99.90
16140;DHT22;8175;49.326;12.690;2023-12-22T04:15:25;2.60;99.90
16140;DHT22;8175;49.326;12.690;2023-12-22T04:17:50;2.50;99.90
16140;DHT22;8175;49.326;12.690;2023-12-22T04:20:16;2.50;99.90
16140;DHT22;8175;49.326;12.690;2023-12-22T04:22:42;2.50;99.90
16140;DHT22;8175;49.326;12.690;2023-12-22T04:25:08;2.50;99.90
16140;DHT22;8175;49.326;12.690;2023-12-22T04:27:34;2.50;99.90
16140;DHT22;8175;49.326;12.690;2023-12-22T04:30:00;2.40;99.90
16140;DHT22;8175;49.326;12.690;2023-12-22T04:32:26;2.40;99.90
16140;DHT22;8175;49.326;12.690;2023-12-22T04:34:52;2.40;99.90
16140;DHT22;8175;49.326;12.690;2023-12-22T04:37:17;2.40;99.90
16140;DHT22;8175;49.326;12.690;2023-12-22T04:39:43;2.40;99.90
16140;DHT22;8175;49.326;12.690;2023-12-22T04:42:09;2.40;99.90
16140;DHT22;8175;49.326;12.690;2023-12-22T04:44:34;2.40;99.90
16140;DHT22;8175;49.326;12.690;2023-12-22T04:47:00;2.40;99.90
16140;DHT22;8175;49.326;12.690;2023-12-22T04:49:26;2.30;99.90
16140;DHT22;8175;49.326;12.690;2023-12-22T04:51:52;2.30;99.90
16140;DHT22;8175;49.326;12.690;2023-12-22T04:54:17;2.30;99.90
16140;DHT22;8175;49.326;12.690;2023-12-22T04:56:43;2.40;99.90
16140;DHT22;8175;49.326;12.690;2023-12-22T04:59:08;2.40;99.90
16140;DHT22;8175;49.326;12.690;2023-12-22T05:01:34;2.40;99.90
16140;DHT22;8175;49.326;12.690;2023-12-22T05:04:00;2.40;99.90
16140;DHT22;8175;49.326;12.690;2023-12-22T05:06:27;2.30;99.90
16140;DHT22;8175;49.326;12.690;2023-12-22T05:08:54;2.30;99.90
16140;DHT22;8175;49.326;12.690;2023-12-22T05:11:20;2.30;99.90
16140;DHT22;8175;49.326;12.690;2023-12-22T05:13:45;2.30;99.90
16140;DHT22;8175;49.326;12.690;2023-12-22T05:16:11;2.30;99.90
16140;DHT22;8175;49.326;12.690;2023-12-22T05:18:37;2.30;99.90
16140;DHT22;8175;49.326;12.690;2023-12-22T05:21:03;2.40;99.90
16140;DHT22;8175;49.326;12.690;2023-12-22T05:23:29;2.40;99.90
16140;DHT22;8175;49.326;12.690;2023-12-22T05:25:55;2.40;99.90
16140;DHT22;8175;49.326;12.690;2023-12-22T05:28:20;2.30;99.90
16140;DHT22;8175;49.326;12.690;2023-12-22T05:30:46;2.40;99.90
16140;DHT22;8175;49.326;12.690;2023-12-22T05:33:13;2.30;99.90
16140;DHT22;8175;49.326;12.690;2023-12-22T05:35:38;2.30;99.90
16140;DHT22;8175;49.326;12.690;2023-12-22T05:38:04;2.30;99.90
16140;DHT22;8175;49.326;12.690;2023-12-22T05:40:31;2.30;99.90
16140;DHT22;8175;49.326;12.690;2023-12-22T05:42:57;2.40;99.90
16140;DHT22;8175;49.326;12.690;2023-12-22T05:45:23;2.30;99.90
16140;DHT22;8175;49.326;12.690;2023-12-22T05:47:50;2.40;99.90
16140;DHT22;8175;49.326;12.690;2023-12-22T05:50:16;2.40;99.90
16140;DHT22;8175;49.326;12.690;2023-12-22T05:52:42;2.40;99.90
16140;DHT22;8175;49.326;12.690;2023-12-22T05:55:09;2.40;99.90
16140;DHT22;8175;49.326;12.690;2023-12-22T05:57:34;2.40;99.90
16140;DHT22;8175;49.326;12.690;2023-12-22T06:00:00;2.40;99.90
16140;DHT22;8175;49.326;12.690;2023-12-22T06:02:26;2.40;99.90
16140;DHT22;8175;49.326;12.690;2023-12-22T06:04:51;2.30;99.90
16140;DHT22;8175;49.326;12.690;2023-12-22T06:07:17;2.30;99.90
16140;DHT22;8175;49.326;12.690;2023-12-22T06:09:45;2.20;99.90
16140;DHT22;8175;49.326;12.690;2023-12-22T06:12:10;2.20;99.90
16140;DHT22;8175;49.326;12.690;2023-12-22T06:14:36;2.20;99.90
16140;DHT22;8175;49.326;12.690;2023-12-22T06:17:01;2.10;99.90
16140;DHT22;8175;49.326;12.690;2023-12-22T06:19:27;2.10;99.90
16140;DHT22;8175;49.326;12.690;2023-12-22T06:21:56;2.10;99.90
16140;DHT22;8175;49.326;12.690;2023-12-22T06:24:22;2.10;99.90
16140;DHT22;8175;49.326;12.690;2023-12-22T06:26:48;2.20;99.90
16140;DHT22;8175;49.326;12.690;2023-12-22T06:29:14;2.20;99.90
16140;DHT22;8175;49.326;12.690;2023-12-22T06:31:39;2.10;99.90
16140;DHT22;8175;49.326;12.690;2023-12-22T06:34:05;2.10;99.90
16140;DHT22;8175;49.326;12.690;2023-12-22T06:36:31;2.10;99.90
16140;DHT22;8175;49.326;12.690;2023-12-22T06:38:56;2.10;99.90
16140;DHT22;8175;49.326;12.690;2023-12-22T06:41:25;2.10;99.90
16140;DHT22;8175;49.326;12.690;2023-12-22T06:43:51;2.00;99.90
16140;DHT22;8175;49.326;12.690;2023-12-22T06:46:22;2.00;99.90
16140;DHT22;8175;49.326;12.690;2023-12-22T06:48:48;2.00;99.90
16140;DHT22;8175;49.326;12.690;2023-12-22T06:51:32;2.00;99.90
16140;DHT22;8175;49.326;12.690;2023-12-22T06:54:01;2.00;99.90
16140;DHT22;8175;49.326;12.690;2023-12-22T06:56:29;2.00;99.90
16140;DHT22;8175;49.326;12.690;2023-12-22T06:58:56;2.10;99.90
16140;DHT22;8175;49.326;12.690;2023-12-22T07:01:30;2.10;99.90
16140;DHT22;8175;49.326;12.690;2023-12-22T07:03:56;2.00;99.90
16140;DHT22;8175;49.326;12.690;2023-12-22T07:06:23;2.00;99.90
16140;DHT22;8175;49.326;12.690;2023-12-22T07:11:51;2.10;99.90
16140;DHT22;8175;49.326;12.690;2023-12-22T07:14:18;2.10;99.90
16140;DHT22;8175;49.326;12.690;2023-12-22T07:16:44;2.10;99.90
16140;DHT22;8175;49.326;12.690;2023-12-22T07:19:10;2.10;99.90
16140;DHT22;8175;49.326;12.690;2023-12-22T07:21:41;2.20;99.90
16140;DHT22;8175;49.326;12.690;2023-12-22T07:24:07;2.30;99.90
16140;DHT22;8175;49.326;12.690;2023-12-22T07:26:33;2.30;99.90
16140;DHT22;8175;49.326;12.690;2023-12-22T07:28:58;2.30;99.90
16140;DHT22;8175;49.326;12.690;2023-12-22T07:31:24;2.30;99.90
16140;DHT22;8175;49.326;12.690;2023-12-22T07:33:51;2.30;99.90
16140;DHT22;8175;49.326;12.690;2023-12-22T07:36:17;2.30;99.90
16140;DHT22;8175;49.326;12.690;2023-12-22T07:38:44;2.40;99.90
16140;DHT22;8175;49.326;12.690;2023-12-22T07:41:09;2.30;99.90
16140;DHT22;8175;49.326;12.690;2023-12-22T07:43:36;2.40;99.90
16140;DHT22;8175;49.326;12.690;2023-12-22T07:46:02;2.40;99.90
16140;DHT22;8175;49.326;12.690;2023-12-22T07:48:27;2.40;99.90
16140;DHT22;8175;49.326;12.690;2023-12-22T07:50:53;2.40;99.90
16140;DHT22;8175;49.326;12.690;2023-12-22T07:53:19;2.40;99.90
16140;DHT22;8175;49.326;12.690;2023-12-22T07:55:45;2.50;99.90
16140;DHT22;8175;49.326;12.690;2023-12-22T07:58:12;2.40;99.90
16140;DHT22;8175;49.326;12.690;2023-12-22T08:00:38;2.40;99.90
16140;DHT22;8175;49.326;12.690;2023-12-22T08:03:04;2.30;99.90
16140;DHT22;8175;49.326;12.690;2023-12-22T08:05:29;2.20;99.90
16140;DHT22;8175;49.326;12.690;2023-12-22T08:07:56;2.10;99.90
16140;DHT22;8175;49.326;12.690;2023-12-22T08:10:21;1.90;99.90
16140;DHT22;8175;49.326;12.690;2023-12-22T08:12:47;1.90;99.90
16140;DHT22;8175;49.326;12.690;2023-12-22T08:15:13;1.70;99.90
16140;DHT22;8175;49.326;12.690;2023-12-22T08:17:48;1.70;99.90
16140;DHT22;8175;49.326;12.690;2023-12-22T08:20:21;1.60;99.90
16140;DHT22;8175;49.326;12.690;2023-12-22T08:22:47;1.50;99.90
16140;DHT22;8175;49.326;12.690;2023-12-22T08:25:13;1.50;99.90
16140;DHT22;8175;49.326;12.690;2023-12-22T08:27:39;1.50;99.90
16140;DHT22;8175;49.326;12.690;2023-12-22T08:30:06;1.60;99.90
16140;DHT22;8175;49.326;12.690;2023-12-22T08:32:32;1.70;99.90
16140;DHT22;8175;49.326;12.690;2023-12-22T08:34:57;1.70;99.90
16140;DHT22;8175;49.326;12.690;2023-12-22T08:37:23;1.70;99.90
16140;DHT22;8175;49.326;12.690;2023-12-22T08:39:48;1.70;99.90
16140;DHT22;8175;49.326;12.690;2023-12-22T08:42:19;1.70;99.90
16140;DHT22;8175;49.326;12.690;2023-12-22T08:44:44;1.70;99.90
16140;DHT22;8175;49.326;12.690;2023-12-22T08:47:10;1.70;99.90
16140;DHT22;8175;49.326;12.690;2023-12-22T08:49:36;1.60;99.90
16140;DHT22;8175;49.326;12.690;2023-12-22T08:52:01;1.60;99.90
16140;DHT22;8175;49.326;12.690;2023-12-22T08:54:29;1.70;99.90
16140;DHT22;8175;49.326;12.690;2023-12-22T08:56:55;1.80;99.90
16140;DHT22;8175;49.326;12.690;2023-12-22T08:59:20;1.90;99.90
16140;DHT22;8175;49.326;12.690;2023-12-22T09:01:46;2.00;99.90
16140;DHT22;8175;49.326;12.690;2023-12-22T09:04:12;2.10;99.90
16140;DHT22;8175;49.326;12.690;2023-12-22T09:06:37;2.20;99.90
16140;DHT22;8175;49.326;12.690;2023-12-22T09:09:03;2.30;99.90
16140;DHT22;8175;49.326;12.690;2023-12-22T09:11:29;2.40;99.90
16140;DHT22;8175;49.326;12.690;2023-12-22T09:13:55;2.50;99.90
16140;DHT22;8175;49.326;12.690;2023-12-22T09:16:22;2.60;99.90
16140;DHT22;8175;49.326;12.690;2023-12-22T09:18:48;2.60;99.90
16140;DHT22;8175;49.326;12.690;2023-12-22T09:21:15;2.70;99.90
16140;DHT22;8175;49.326;12.690;2023-12-22T09:23:41;2.80;99.90
16140;DHT22;8175;49.326;12.690;2023-12-22T09:26:10;2.90;99.90
16140;DHT22;8175;49.326;12.690;2023-12-22T09:28:35;3.00;99.90
16140;DHT22;8175;49.326;12.690;2023-12-22T09:31:01;3.00;99.90
16140;DHT22;8175;49.326;12.690;2023-12-22T09:33:27;3.10;99.90
16140;DHT22;8175;49.326;12.690;2023-12-22T09:35:53;3.10;99.90
16140;DHT22;8175;49.326;12.690;2023-12-22T09:38:18;3.20;99.90
16140;DHT22;8175;49.326;12.690;2023-12-22T09:40:44;3.20;99.90
16140;DHT22;8175;49.326;12.690;2023-12-22T09:43:13;3.30;99.90
16140;DHT22;8175;49.326;12.690;2023-12-22T09:45:40;3.40;99.90
16140;DHT22;8175;49.326;12.690;2023-12-22T09:48:07;3.40;99.90
16140;DHT22;8175;49.326;12.690;2023-12-22T09:50:35;3.40;99.90
16140;DHT22;8175;49.326;12.690;2023-12-22T09:53:02;3.50;99.90
16140;DHT22;8175;49.326;12.690;2023-12-22T09:55:30;3.50;99.90
16140;DHT22;8175;49.326;12.690;2023-12-22T09:57:56;3.50;99.90
16140;DHT22;8175;49.326;12.690;2023-12-22T10:00:24;3.50;99.90
16140;DHT22;8175;49.326;12.690;2023-12-22T10:02:50;3.50;99.90
16140;DHT22;8175;49.326;12.690;2023-12-22T10:05:16;3.60;99.90
16140;DHT22;8175;49.326;12.690;2023-12-22T10:07:44;3.60;99.90
16140;DHT22;8175;49.326;12.690;2023-12-22T10:10:11;3.60;99.90
16140;DHT22;8175;49.326;12.690;2023-12-22T10:12:38;3.70;99.90
16140;DHT22;8175;49.326;12.690;2023-12-22T10:15:09;3.80;99.90
16140;DHT22;8175;49.326;12.690;2023-12-22T10:17:36;3.80;99.90
16140;DHT22;8175;49.326;12.690;2023-12-22T10:20:03;3.90;99.90
16140;DHT22;8175;49.326;12.690;2023-12-22T10:22:28;3.90;99.90
16140;DHT22;8175;49.326;12.690;2023-12-22T10:24:54;3.90;99.90
16140;DHT22;8175;49.326;12.690;2023-12-22T10:27:20;3.90;99.90
16140;DHT22;8175;49.326;12.690;2023-12-22T10:29:54;4.00;99.90
16140;DHT22;8175;49.326;12.690;2023-12-22T10:32:21;4.00;99.90
16140;DHT22;8175;49.326;12.690;2023-12-22T10:34:47;4.00;99.90
16140;DHT22;8175;49.326;12.690;2023-12-22T10:37:13;4.10;99.90
16140;DHT22;8175;49.326;12.690;2023-12-22T10:39:39;4.00;99.90
16140;DHT22;8175;49.326;12.690;2023-12-22T10:42:06;4.00;99.90
16140;DHT22;8175;49.326;12.690;2023-12-22T10:44:31;4.00;99.90
16140;DHT22;8175;49.326;12.690;2023-12-22T10:46:58;4.00;99.90
16140;DHT22;8175;49.326;12.690;2023-12-22T10:49:24;4.00;99.90
16140;DHT22;8175;49.326;12.690;2023-12-22T10:51:51;4.00;99.90
16140;DHT22;8175;49.326;12.690;2023-12-22T10:54:17;4.00;99.90
16140;DHT22;8175;49.326;12.690;2023-12-22T10:56:43;4.00;99.90
16140;DHT22;8175;49.326;12.690;2023-12-22T10:59:09;4.00;99.90
16140;DHT22;8175;49.326;12.690;2023-12-22T11:01:38;4.00;99.90
16140;DHT22;8175;49.326;12.690;2023-12-22T11:04:08;4.00;99.90
16140;DHT22;8175;49.326;12.690;2023-12-22T11:06:36;4.00;99.90
16140;DHT22;8175;49.326;12.690;2023-12-22T11:09:09;4.00;99.90
16140;DHT22;8175;49.326;12.690;2023-12-22T11:11:36;4.00;99.90
16140;DHT22;8175;49.326;12.690;2023-12-22T11:14:03;4.00;99.90
16140;DHT22;8175;49.326;12.690;2023-12-22T11:16:30;4.00;99.90
16140;DHT22;8175;49.326;12.690;2023-12-22T11:18:56;4.00;99.90
16140;DHT22;8175;49.326;12.690;2023-12-22T11:21:23;4.00;99.90
16140;DHT22;8175;49.326;12.690;2023-12-22T11:23:53;4.00;99.90
16140;DHT22;8175;49.326;12.690;2023-12-22T11:26:20;4.10;99.90
16140;DHT22;8175;49.326;12.690;2023-12-22T11:28:48;4.10;99.90
16140;DHT22;8175;49.326;12.690;2023-12-22T11:31:14;4.00;99.90
16140;DHT22;8175;49.326;12.690;2023-12-22T11:33:46;4.00;99.90
16140;DHT22;8175;49.326;12.690;2023-12-22T11:36:13;4.00;99.90
16140;DHT22;8175;49.326;12.690;2023-12-22T11:38:43;4.10;99.90
16140;DHT22;8175;49.326;12.690;2023-12-22T11:41:12;4.10;99.90
16140;DHT22;8175;49.326;12.690;2023-12-22T11:43:41;4.10;99.90
16140;DHT22;8175;49.326;12.690;2023-12-22T11:46:08;4.10;99.90
16140;DHT22;8175;49.326;12.690;2023-12-22T11:48:34;4.10;99.90
16140;DHT22;8175;49.326;12.690;2023-12-22T11:51:00;4.20;99.90
16140;DHT22;8175;49.326;12.690;2023-12-22T11:53:30;4.10;99.90
16140;DHT22;8175;49.326;12.690;2023-12-22T11:56:04;4.10;99.90
16140;DHT22;8175;49.326;12.690;2023-12-22T11:58:37;4.10;99.90
16140;DHT22;8175;49.326;12.690;2023-12-22T12:01:07;4.20;99.90
16140;DHT22;8175;49.326;12.690;2023-12-22T12:03:36;4.20;99.90
16140;DHT22;8175;49.326;12.690;2023-12-22T12:06:30;4.20;99.90
16140;DHT22;8175;49.326;12.690;2023-12-22T12:08:57;4.10;99.90
16140;DHT22;8175;49.326;12.690;2023-12-22T12:11:23;4.00;99.90
16140;DHT22;8175;49.326;12.690;2023-12-22T12:13:50;3.90;99.90
16140;DHT22;8175;49.326;12.690;2023-12-22T12:16:20;3.90;99.90
16140;DHT22;8175;49.326;12.690;2023-12-22T12:18:50;3.50;99.90
16140;DHT22;8175;49.326;12.690;2023-12-22T12:21:16;3.10;99.90
16140;DHT22;8175;49.326;12.690;2023-12-22T12:23:42;2.90;99.90
16140;DHT22;8175;49.326;12.690;2023-12-22T12:26:08;2.70;99.90
16140;DHT22;8175;49.326;12.690;2023-12-22T12:28:35;2.70;99.90
16140;DHT22;8175;49.326;12.690;2023-12-22T12:31:06;2.60;99.90
16140;DHT22;8175;49.326;12.690;2023-12-22T12:33:33;2.50;99.90
16140;DHT22;8175;49.326;12.690;2023-12-22T12:36:01;2.50;99.90
16140;DHT22;8175;49.326;12.690;2023-12-22T12:38:55;2.50;99.90
16140;DHT22;8175;49.326;12.690;2023-12-22T12:41:31;2.50;99.90
16140;DHT22;8175;49.326;12.690;2023-12-22T12:43:59;2.60;99.90
16140;DHT22;8175;49.326;12.690;2023-12-22T12:46:35;2.70;99.90
16140;DHT22;8175;49.326;12.690;2023-12-22T12:51:35;2.70;99.90
16140;DHT22;8175;49.326;12.690;2023-12-22T12:54:00;2.70;99.90
16140;DHT22;8175;49.326;12.690;2023-12-22T12:56:27;2.70;99.90
16140;DHT22;8175;49.326;12.690;2023-12-22T12:58:52;2.70;99.90
16140;DHT22;8175;49.326;12.690;2023-12-22T13:01:18;2.70;99.90
16140;DHT22;8175;49.326;12.690;2023-12-22T13:03:54;2.70;99.90
16140;DHT22;8175;49.326;12.690;2023-12-22T13:06:20;2.80;99.90
16140;DHT22;8175;49.326;12.690;2023-12-22T13:08:52;2.80;99.90
16140;DHT22;8175;49.326;12.690;2023-12-22T13:11:26;2.80;99.90
16140;DHT22;8175;49.326;12.690;2023-12-22T13:13:53;2.80;99.90
16140;DHT22;8175;49.326;12.690;2023-12-22T13:16:23;2.80;99.90
16140;DHT22;8175;49.326;12.690;2023-12-22T13:18:55;2.80;99.90
16140;DHT22;8175;49.326;12.690;2023-12-22T13:21:22;2.70;99.90
16140;DHT22;8175;49.326;12.690;2023-12-22T13:23:47;2.70;99.90
16140;DHT22;8175;49.326;12.690;2023-12-22T13:26:20;2.70;99.90
16140;DHT22;8175;49.326;12.690;2023-12-22T13:28:45;2.70;99.90
16140;DHT22;8175;49.326;12.690;2023-12-22T13:31:12;2.70;99.90
16140;DHT22;8175;49.326;12.690;2023-12-22T13:33:40;2.70;99.90
16140;DHT22;8175;49.326;12.690;2023-12-22T13:36:06;2.70;99.90
16140;DHT22;8175;49.326;12.690;2023-12-22T13:38:33;2.70;99.90
16140;DHT22;8175;49.326;12.690;2023-12-22T13:41:01;2.80;99.90
16140;DHT22;8175;49.326;12.690;2023-12-22T13:43:29;2.70;99.90
16140;DHT22;8175;49.326;12.690;2023-12-22T13:45:54;2.70;99.90
16140;DHT22;8175;49.326;12.690;2023-12-22T13:48:20;2.70;99.90
16140;DHT22;8175;49.326;12.690;2023-12-22T13:50:59;2.70;99.90
16140;DHT22;8175;49.326;12.690;2023-12-22T13:53:25;2.80;99.90
16140;DHT22;8175;49.326;12.690;2023-12-22T13:55:57;2.80;99.90
16140;DHT22;8175;49.326;12.690;2023-12-22T13:58:23;2.80;99.90
16140;DHT22;8175;49.326;12.690;2023-12-22T14:00:50;2.80;99.90
16140;DHT22;8175;49.326;12.690;2023-12-22T14:03:16;2.80;99.90
16140;DHT22;8175;49.326;12.690;2023-12-22T14:05:43;2.70;99.90
16140;DHT22;8175;49.326;12.690;2023-12-22T14:08:09;2.60;99.90
16140;DHT22;8175;49.326;12.690;2023-12-22T14:10:34;2.50;99.90
16140;DHT22;8175;49.326;12.690;2023-12-22T14:13:00;2.50;99.90
16140;DHT22;8175;49.326;12.690;2023-12-22T14:15:26;2.40;99.90
16140;DHT22;8175;49.326;12.690;2023-12-22T14:17:55;2.40;99.90
16140;DHT22;8175;49.326;12.690;2023-12-22T14:20:21;2.30;99.90
16140;DHT22;8175;49.326;12.690;2023-12-22T14:22:47;2.30;99.90
16140;DHT22;8175;49.326;12.690;2023-12-22T14:25:12;2.20;99.90
16140;DHT22;8175;49.326;12.690;2023-12-22T14:27:38;2.10;99.90
16140;DHT22;8175;49.326;12.690;2023-12-22T14:30:04;2.00;99.90
16140;DHT22;8175;49.326;12.690;2023-12-22T14:32:30;2.00;99.90
16140;DHT22;8175;49.326;12.690;2023-12-22T14:34:56;1.90;99.90
16140;DHT22;8175;49.326;12.690;2023-12-22T14:37:22;1.90;99.90
16140;DHT22;8175;49.326;12.690;2023-12-22T14:39:48;1.80;99.90
16140;DHT22;8175;49.326;12.690;2023-12-22T14:42:14;1.60;99.90
16140;DHT22;8175;49.326;12.690;2023-12-22T14:44:40;1.50;99.90
16140;DHT22;8175;49.326;12.690;2023-12-22T14:47:06;1.40;99.90
16140;DHT22;8175;49.326;12.690;2023-12-22T14:49:31;1.30;99.90
16140;DHT22;8175;49.326;12.690;2023-12-22T14:51:57;1.20;99.90
16140;DHT22;8175;49.326;12.690;2023-12-22T14:54:25;1.10;99.90
16140;DHT22;8175;49.326;12.690;2023-12-22T14:56:51;1.10;99.90
16140;DHT22;8175;49.326;12.690;2023-12-22T14:59:17;1.00;99.90
16140;DHT22;8175;49.326;12.690;2023-12-22T15:01:43;0.90;99.90
16140;DHT22;8175;49.326;12.690;2023-12-22T15:04:09;0.90;99.90
16140;DHT22;8175;49.326;12.690;2023-12-22T15:06:38;0.90;99.90
16140;DHT22;8175;49.326;12.690;2023-12-22T15:09:09;0.80;99.90
16140;DHT22;8175;49.326;12.690;2023-12-22T15:11:45;0.70;99.90
16140;DHT22;8175;49.326;12.690;2023-12-22T15:14:11;0.70;99.90
16140;DHT22;8175;49.326;12.690;2023-12-22T15:16:41;0.70;99.90
16140;DHT22;8175;49.326;12.690;2023-12-22T15:19:13;0.70;99.90
16140;DHT22;8175;49.326;12.690;2023-12-22T15:21:39;0.70;99.90
16140;DHT22;8175;49.326;12.690;2023-12-22T15:24:05;0.60;99.90
16140;DHT22;8175;49.326;12.690;2023-12-22T15:26:31;0.60;99.90
16140;DHT22;8175;49.326;12.690;2023-12-22T15:28:59;0.70;99.90
16140;DHT22;8175;49.326;12.690;2023-12-22T15:31:25;0.70;99.90
16140;DHT22;8175;49.326;12.690;2023-12-22T15:33:51;0.60;99.90
16140;DHT22;8175;49.326;12.690;2023-12-22T15:36:17;0.60;99.90
16140;DHT22;8175;49.326;12.690;2023-12-22T15:38:44;0.60;99.90
16140;DHT22;8175;49.326;12.690;2023-12-22T15:41:10;0.60;99.90
16140;DHT22;8175;49.326;12.690;2023-12-22T15:43:36;0.60;99.90
16140;DHT22;8175;49.326;12.690;2023-12-22T15:46:06;0.60;99.90
16140;DHT22;8175;49.326;12.690;2023-12-22T15:48:32;0.60;99.90
16140;DHT22;8175;49.326;12.690;2023-12-22T15:50:58;0.60;99.90